Pino Ladra — ECGJ — position and weather

sailwx.info

Track history (hours):
 
Tides and Currents Weather Stations Pressure Air Temp Water Temp Dewpoint Dewpoint Depression Visibility Wind Speed Wind Dir Waves Ship Positions

Pino Ladra

Last reported at 2016-Jul-03 23:11 UTC. Time now 2016-Jul-29 00:13 UTC.
Position N 43°50' W 007°43'.
Warning: this ship's position is 25 days out of date.

Length 32 m; draft 5 m.

Type: Fishing. MMSI: 224134550.

Date/timePositionNaut miles runAvg speedWind from/ knotsBaromVisibWave heightAir tempDewpointWater temp
2016-Jul-03 23:11N 43°50' W 007°43'610.2
2016-Jul-03 22:33N 43°45' W 007°37'5 0.1
2016-Jul-01 20:33N 43°41' W 007°36'0 0.0
2016-Jul-01 19:33N 43°41' W 007°36'4 4.4
2016-Jul-01 18:33N 43°45' W 007°37'6 5.9
2016-Jul-01 17:32N 43°50' W 007°41'1 0.2
2016-Jul-01 09:22N 43°50' W 007°43'3 3.3
2016-Jul-01 08:33N 43°49' W 007°40'3 3.3
2016-Jul-01 07:33N 43°48' W 007°36'3 3.3
2016-Jul-01 06:33N 43°47' W 007°31'3 2.6
2016-Jul-01 05:24N 43°46' W 007°27'2 2.8
2016-Jul-01 04:33N 43°47' W 007°30'3 3.3
2016-Jul-01 03:33N 43°48' W 007°35'3 3.2
2016-Jul-01 02:33N 43°49' W 007°39'2 2.1
2016-Jul-01 01:30N 43°49' W 007°42'3 3.1
2016-Jul-01 00:33N 43°49' W 007°38'3 3.2
2016-Jun-30 23:33N 43°48' W 007°34'3 3.2
2016-Jun-30 22:33N 43°47' W 007°29'3 3.2
2016-Jun-30 21:30N 43°46' W 007°25'13 0.6
2016-Jun-30 00:25N 43°58' W 007°33'4 4.0
2016-Jun-29 23:30N 43°54' W 007°30'3 3.2
2016-Jun-29 22:33N 43°51' W 007°30'4 3.3
2016-Jun-29 21:29N 43°49' W 007°27'3 3.2
2016-Jun-29 20:28N 43°47' W 007°23'6 2.2
2016-Jun-29 17:33N 43°46' W 007°32'2 2.3
2016-Jun-29 16:33N 43°49' W 007°31'3 3.2
2016-Jun-29 15:33N 43°49' W 007°27'3 3.1
2016-Jun-29 14:29N 43°47' W 007°23'9 1.4
2016-Jun-29 08:24N 43°54' W 007°31'2 2.0
2016-Jun-29 07:32N 43°52' W 007°31'3 3.2
2016-Jun-29 06:33N 43°50' W 007°28'4 3.3
2016-Jun-29 05:26N 43°48' W 007°24'3 0.9
2016-Jun-29 02:30N 43°47' W 007°28'3 3.2
2016-Jun-29 01:33N 43°48' W 007°32'3 3.2
2016-Jun-29 00:33N 43°49' W 007°36'1 0.8
2016-Jun-28 23:34N 43°49' W 007°37'3 3.3
2016-Jun-28 22:32N 43°48' W 007°32'3 3.3
2016-Jun-28 21:33N 43°47' W 007°28'3 0.7
2016-Jun-28 17:33N 43°46' W 007°31'1 1.4
2016-Jun-28 16:33N 43°47' W 007°32'3 3.3
2016-Jun-28 15:31N 43°46' W 007°28'5 0.6
2016-Jun-28 07:14N 43°51' W 007°24'4 1.1
2016-Jun-28 03:08N 43°47' W 007°28'2 3.3
2016-Jun-28 02:33N 43°47' W 007°30'3 3.2
2016-Jun-28 01:33N 43°48' W 007°35'2 2.3
2016-Jun-28 00:33N 43°49' W 007°38'3 2.6
2016-Jun-27 23:33N 43°49' W 007°34'3 3.3
2016-Jun-27 22:31N 43°48' W 007°30'3 3.3
2016-Jun-27 21:33N 43°47' W 007°26'1 0.3
2016-Jun-27 17:19N 43°48' W 007°25'3 3.3
2016-Jun-27 16:33N 43°49' W 007°27'3 3.2
2016-Jun-27 15:32N 43°52' W 007°30'3 2.8
2016-Jun-27 14:31N 43°50' W 007°28'3 3.2
2016-Jun-27 13:33N 43°47' W 007°26'3 2.6
2016-Jun-27 12:28N 43°47' W 007°30'3 3.3
2016-Jun-27 11:33N 43°48' W 007°34'1 1.2
2016-Jun-27 10:34N 43°48' W 007°35'3 3.2
2016-Jun-27 09:33N 43°49' W 007°31'4 3.1
2016-Jun-27 08:13N 43°48' W 007°25'3 1.6
2016-Jun-27 06:25N 43°46' W 007°28'3 3.3
2016-Jun-27 05:32N 43°47' W 007°32'3 3.2
2016-Jun-27 04:33N 43°48' W 007°36'3 3.0
2016-Jun-27 03:33N 43°49' W 007°40'3 2.4
2016-Jun-27 02:30N 43°50' W 007°43'3 3.2
2016-Jun-27 01:33N 43°49' W 007°39'3 3.2
2016-Jun-27 00:33N 43°48' W 007°35'3 3.2
2016-Jun-26 23:33N 43°47' W 007°31'  
2016-Jun-24 12:15N 43°46' W 007°25'2 3.2
2016-Jun-24 11:33N 43°48' W 007°26'3 3.2
2016-Jun-24 10:31N 43°51' W 007°29'4 3.3
2016-Jun-24 09:20N 43°55' W 007°30'3 3.4
2016-Jun-24 08:34N 43°52' W 007°31'3 3.2
2016-Jun-24 07:33N 43°50' W 007°28'3 0.6
2016-Jun-24 03:31N 43°47' W 007°28'3 3.3
2016-Jun-24 02:33N 43°47' W 007°32'3 3.2
2016-Jun-24 01:33N 43°48' W 007°36'1 0.5
2016-Jun-24 00:33N 43°49' W 007°37'3 3.2
2016-Jun-23 23:33N 43°48' W 007°32'  
Track history (hours):
 
Tides and Currents Weather Stations Pressure Air Temp Water Temp Dewpoint Dewpoint Depression Visibility Wind Speed Wind Dir Waves Ship Positions

Pino Ladra

Last reported at 2016-Jul-03 23:11 UTC. Time now 2016-Jul-29 00:13 UTC.
Position N 43°50' W 007°43'.
Warning: this ship's position is 25 days out of date.

Length 32 m; draft 5 m.

Type: Fishing. MMSI: 224134550.

Date/timePositionNaut miles runAvg speedWind from/ knotsBaromVisibWave heightAir tempDewpointWater temp
2016-Jul-03 23:11N 43°50' W 007°43'610.2
2016-Jul-03 22:33N 43°45' W 007°37'5 0.1
2016-Jul-01 20:33N 43°41' W 007°36'0 0.0
2016-Jul-01 19:33N 43°41' W 007°36'4 4.4
2016-Jul-01 18:33N 43°45' W 007°37'6 5.9
2016-Jul-01 17:32N 43°50' W 007°41'1 0.2
2016-Jul-01 09:22N 43°50' W 007°43'3 3.3
2016-Jul-01 08:33N 43°49' W 007°40'3 3.3
2016-Jul-01 07:33N 43°48' W 007°36'3 3.3
2016-Jul-01 06:33N 43°47' W 007°31'3 2.6
2016-Jul-01 05:24N 43°46' W 007°27'2 2.8
2016-Jul-01 04:33N 43°47' W 007°30'3 3.3
2016-Jul-01 03:33N 43°48' W 007°35'3 3.2
2016-Jul-01 02:33N 43°49' W 007°39'2 2.1
2016-Jul-01 01:30N 43°49' W 007°42'3 3.1
2016-Jul-01 00:33N 43°49' W 007°38'3 3.2
2016-Jun-30 23:33N 43°48' W 007°34'3 3.2
2016-Jun-30 22:33N 43°47' W 007°29'3 3.2
2016-Jun-30 21:30N 43°46' W 007°25'13 0.6
2016-Jun-30 00:25N 43°58' W 007°33'4 4.0
2016-Jun-29 23:30N 43°54' W 007°30'3 3.2
2016-Jun-29 22:33N 43°51' W 007°30'4 3.3
2016-Jun-29 21:29N 43°49' W 007°27'3 3.2
2016-Jun-29 20:28N 43°47' W 007°23'6 2.2
2016-Jun-29 17:33N 43°46' W 007°32'2 2.3
2016-Jun-29 16:33N 43°49' W 007°31'3 3.2
2016-Jun-29 15:33N 43°49' W 007°27'3 3.1
2016-Jun-29 14:29N 43°47' W 007°23'9 1.4
2016-Jun-29 08:24N 43°54' W 007°31'2 2.0
2016-Jun-29 07:32N 43°52' W 007°31'3 3.2
2016-Jun-29 06:33N 43°50' W 007°28'4 3.3
2016-Jun-29 05:26N 43°48' W 007°24'3 0.9
2016-Jun-29 02:30N 43°47' W 007°28'3 3.2
2016-Jun-29 01:33N 43°48' W 007°32'3 3.2
2016-Jun-29 00:33N 43°49' W 007°36'1 0.8
2016-Jun-28 23:34N 43°49' W 007°37'3 3.3
2016-Jun-28 22:32N 43°48' W 007°32'3 3.3
2016-Jun-28 21:33N 43°47' W 007°28'3 0.7
2016-Jun-28 17:33N 43°46' W 007°31'1 1.4
2016-Jun-28 16:33N 43°47' W 007°32'3 3.3
2016-Jun-28 15:31N 43°46' W 007°28'5 0.6
2016-Jun-28 07:14N 43°51' W 007°24'4 1.1
2016-Jun-28 03:08N 43°47' W 007°28'2 3.3
2016-Jun-28 02:33N 43°47' W 007°30'3 3.2
2016-Jun-28 01:33N 43°48' W 007°35'2 2.3
2016-Jun-28 00:33N 43°49' W 007°38'3 2.6
2016-Jun-27 23:33N 43°49' W 007°34'3 3.3
2016-Jun-27 22:31N 43°48' W 007°30'3 3.3
2016-Jun-27 21:33N 43°47' W 007°26'1 0.3
2016-Jun-27 17:19N 43°48' W 007°25'3 3.3
2016-Jun-27 16:33N 43°49' W 007°27'3 3.2
2016-Jun-27 15:32N 43°52' W 007°30'3 2.8
2016-Jun-27 14:31N 43°50' W 007°28'3 3.2
2016-Jun-27 13:33N 43°47' W 007°26'3 2.6
2016-Jun-27 12:28N 43°47' W 007°30'3 3.3
2016-Jun-27 11:33N 43°48' W 007°34'1 1.2
2016-Jun-27 10:34N 43°48' W 007°35'3 3.2
2016-Jun-27 09:33N 43°49' W 007°31'4 3.1
2016-Jun-27 08:13N 43°48' W 007°25'3 1.6
2016-Jun-27 06:25N 43°46' W 007°28'3 3.3
2016-Jun-27 05:32N 43°47' W 007°32'3 3.2
2016-Jun-27 04:33N 43°48' W 007°36'3 3.0
2016-Jun-27 03:33N 43°49' W 007°40'3 2.4
2016-Jun-27 02:30N 43°50' W 007°43'3 3.2
2016-Jun-27 01:33N 43°49' W 007°39'3 3.2
2016-Jun-27 00:33N 43°48' W 007°35'3 3.2
2016-Jun-26 23:33N 43°47' W 007°31'  
2016-Jun-24 12:15N 43°46' W 007°25'2 3.2
2016-Jun-24 11:33N 43°48' W 007°26'3 3.2
2016-Jun-24 10:31N 43°51' W 007°29'4 3.3
2016-Jun-24 09:20N 43°55' W 007°30'3 3.4
2016-Jun-24 08:34N 43°52' W 007°31'3 3.2
2016-Jun-24 07:33N 43°50' W 007°28'3 0.6
2016-Jun-24 03:31N 43°47' W 007°28'3 3.3
2016-Jun-24 02:33N 43°47' W 007°32'3 3.2
2016-Jun-24 01:33N 43°48' W 007°36'1 0.5
2016-Jun-24 00:33N 43°49' W 007°37'3 3.2
2016-Jun-23 23:33N 43°48' W 007°32'  

Dump ship's entire track history